Time;durP1;ratioP1;P1;durP2;ratioP2;P2;SDS_P1;SDS_P2;PMS_P1;PMS_P2;Temp;Humidity;BMP_temperature;BMP_pressure;BME280_temperature;BME280_humidity;BME280_pressure;Samples;Min_cycle;Max_cycle;Signal;HPM_P1;HPM_P2
2021/06/19 05:02:49;;;;;;;7.07;4.67;;;;;;;18.93;78.60;100661.59;127296;1089;104318;-79
2021/06/19 05:05:17;;;;;;;5.13;3.93;;;;;;;19.03;78.73;100660.77;126814;1089;104312;-78
2021/06/19 05:07:45;;;;;;;8.57;4.50;;;;;;;19.12;79.00;100658.13;126824;1090;104140;-78
2021/06/19 05:10:14;;;;;;;6.07;4.43;;;;;;;19.10;78.81;100665.20;126832;1089;104248;-79
2021/06/19 05:12:43;;;;;;;7.37;4.30;;;;;;;19.13;78.32;100674.97;126786;1089;104300;-78
2021/06/19 05:15:14;;;;;;;8.57;4.40;;;;;;;19.10;78.26;100674.95;126757;1089;104127;-79
2021/06/19 05:17:42;;;;;;;6.90;3.93;;;;;;;19.04;78.59;100671.41;126792;1093;104261;-77
2021/06/19 05:20:11;;;;;;;6.67;4.00;;;;;;;19.04;79.03;100679.38;126811;1089;104280;-78
2021/06/19 05:22:39;;;;;;;7.43;3.90;;;;;;;19.11;78.94;100682.06;126795;1089;104133;-78
2021/06/19 05:25:09;;;;;;;6.13;4.13;;;;;;;19.16;78.48;100685.63;126759;1089;104264;-78
2021/06/19 05:27:36;;;;;;;7.00;3.70;;;;;;;19.20;78.75;100690.08;126788;1089;104138;-79
2021/06/19 05:30:06;;;;;;;9.00;4.65;;;;;;;19.19;78.61;100689.17;126761;1089;104133;-78
2021/06/19 05:32:34;;;;;;;5.97;3.50;;;;;;;19.16;79.27;100691.81;126787;1090;104133;-78
2021/06/19 05:35:03;;;;;;;4.37;3.40;;;;;;;19.15;78.73;100692.72;126734;1089;104204;-79
2021/06/19 05:37:31;;;;;;;6.53;3.80;;;;;;;19.03;79.25;100696.21;126774;1089;104341;-78
2021/06/19 05:39:59;;;;;;;4.60;3.80;;;;;;;19.00;79.39;100706.83;126805;1089;104135;-78
2021/06/19 05:42:27;;;;;;;6.53;3.53;;;;;;;18.97;79.18;100704.16;126798;1089;104248;-78
2021/06/19 05:44:55;;;;;;;7.63;4.30;;;;;;;18.95;79.46;100705.05;126733;1092;104145;-78
2021/06/19 05:47:23;;;;;;;8.63;4.33;;;;;;;18.90;79.51;100713.01;126805;1089;104594;-78
2021/06/19 05:49:51;;;;;;;8.33;4.00;;;;;;;18.93;79.76;100718.34;126783;1089;104749;-78
2021/06/19 05:52:21;;;;;;;5.83;3.97;;;;;;;18.96;79.59;100715.67;126817;1093;104366;-79
2021/06/19 05:54:49;;;;;;;6.37;3.50;;;;;;;19.00;79.40;100714.81;126739;1089;104142;-78
2021/06/19 05:57:17;;;;;;;5.50;3.63;;;;;;;19.01;79.76;100728.98;126802;1089;104215;-79
2021/06/19 05:59:45;;;;;;;6.97;3.57;;;;;;;18.98;79.01;100723.65;126794;1092;104162;-78
2021/06/19 06:02:13;;;;;;;7.43;3.80;;;;;;;18.99;79.59;100730.76;126777;1089;104140;-79
2021/06/19 06:04:45;;;;;;;4.90;3.70;;;;;;;19.03;79.54;100733.44;126775;1089;104130;-78
2021/06/19 06:07:14;;;;;;;7.60;4.13;;;;;;;19.04;79.56;100732.57;126796;1090;104148;-78
2021/06/19 06:09:41;;;;;;;5.03;3.60;;;;;;;19.07;79.10;100741.44;126804;1092;104283;-78
2021/06/19 06:12:11;;;;;;;6.70;4.20;;;;;;;19.10;79.40;100738.79;126812;1089;104130;-77
2021/06/19 06:14:39;;;;;;;8.60;3.80;;;;;;;19.15;79.68;100731.70;126742;1089;104124;-79
2021/06/19 06:17:07;;;;;;;4.13;3.67;;;;;;;19.16;79.74;100738.81;126815;1089;104139;-78
2021/06/19 06:19:37;;;;;;;5.10;4.00;;;;;;;19.16;79.59;100739.70;126758;1093;104145;-79
2021/06/19 06:22:06;;;;;;;7.20;4.07;;;;;;;19.16;79.82;100746.80;126777;1093;105718;-77
2021/06/19 06:24:34;;;;;;;4.37;3.67;;;;;;;19.13;79.50;100739.68;126728;1093;104289;-78
2021/06/19 06:27:02;;;;;;;6.80;4.10;;;;;;;19.21;79.56;100737.05;126752;1093;104334;-79
2021/06/19 06:29:30;;;;;;;5.93;4.40;;;;;;;19.35;80.32;100729.13;126777;1093;104287;-77
2021/06/19 06:31:58;;;;;;;5.83;4.40;;;;;;;19.51;79.34;100736.28;126789;1093;104167;-79
2021/06/19 06:34:27;;;;;;;8.07;4.13;;;;;;;19.62;80.12;100736.31;126435;1093;105699;-79
2021/06/19 06:36:55;;;;;;;8.40;4.93;;;;;;;19.73;80.19;100739.00;126728;1093;104129;-77
2021/06/19 06:39:23;;;;;;;6.47;4.73;;;;;;;19.87;80.02;100747.05;126706;1093;104417;-77
2021/06/19 06:41:51;;;;;;;6.33;4.50;;;;;;;20.00;80.07;100740.83;126705;1093;104200;-80
2021/06/19 06:44:19;;;;;;;7.03;4.23;;;;;;;20.13;80.08;100735.51;126757;1093;104242;-79
2021/06/19 06:46:47;;;;;;;5.80;4.40;;;;;;;20.24;79.52;100736.38;126761;1093;104136;-79
2021/06/19 06:49:15;;;;;;;6.43;4.13;;;;;;;20.39;79.87;100739.05;126797;1093;104155;-79
2021/06/19 06:51:43;;;;;;;8.37;4.90;;;;;;;20.50;79.65;100733.70;126771;1092;104174;-78
2021/06/19 06:54:11;;;;;;;7.77;4.60;;;;;;;20.61;79.90;100739.02;126789;1089;104591;-77
2021/06/19 06:56:38;;;;;;;6.20;4.20;;;;;;;20.61;79.47;100739.02;126742;1089;104206;-77
2021/06/19 06:59:06;;;;;;;5.27;4.00;;;;;;;20.63;78.73;100742.56;126828;1089;104228;-78
2021/06/19 07:01:34;;;;;;;6.40;4.40;;;;;;;20.73;79.64;100739.03;126796;1089;104216;-78
2021/06/19 07:04:02;;;;;;;6.27;3.70;;;;;;;20.80;79.42;100732.80;126781;1090;104290;-77
2021/06/19 07:06:35;;;;;;;5.87;3.70;;;;;;;20.88;79.17;100739.88;126789;1089;104657;-78
2021/06/19 07:09:07;;;;;;;8.83;4.30;;;;;;;20.94;78.64;100740.77;126790;1089;104145;-77
2021/06/19 07:11:35;;;;;;;8.17;4.50;;;;;;;20.94;78.55;100737.19;126814;1090;104235;-77
2021/06/19 07:14:03;;;;;;;7.13;4.00;;;;;;;20.98;78.76;100737.17;126798;1089;104171;-77
2021/06/19 07:16:31;;;;;;;4.63;3.83;;;;;;;21.13;79.36;100738.91;126742;1090;104155;-77
2021/06/19 07:18:59;;;;;;;5.23;3.90;;;;;;;21.33;79.42;100733.48;126786;1089;104136;-79
2021/06/19 07:21:27;;;;;;;6.43;4.30;;;;;;;21.45;78.90;100726.30;126817;1089;104572;-80
2021/06/19 07:23:55;;;;;;;5.40;3.60;;;;;;;21.65;78.29;100729.77;126842;1093;104219;-79
2021/06/19 07:26:24;;;;;;;5.63;4.20;;;;;;;21.88;78.82;100724.28;126747;1093;104155;-78
2021/06/19 07:28:51;;;;;;;6.00;3.80;;;;;;;22.10;78.21;100721.44;126805;1089;104155;-78
2021/06/19 07:31:19;;;;;;;5.87;3.60;;;;;;;22.15;78.30;100722.28;126785;1090;104136;-78
2021/06/19 07:33:47;;;;;;;7.43;3.97;;;;;;;22.18;77.48;100729.39;126799;1092;104143;-79
2021/06/19 07:36:15;;;;;;;7.30;4.03;;;;;;;22.21;78.22;100726.70;126761;1089;104153;-78
2021/06/19 07:38:43;;;;;;;5.90;3.60;;;;;;;22.26;77.77;100724.86;126810;1089;104136;-77
2021/06/19 07:41:11;;;;;;;6.00;4.00;;;;;;;22.32;78.07;100726.64;126768;1089;104213;-77
2021/06/19 07:43:40;;;;;;;5.27;3.60;;;;;;;22.43;77.94;100727.41;126786;1093;104139;-78
2021/06/19 07:46:08;;;;;;;5.70;3.60;;;;;;;22.34;77.25;100733.72;127009;1089;105520;-79
2021/06/19 07:48:36;;;;;;;5.80;3.37;;;;;;;22.34;76.99;100728.37;127046;1089;104127;-77
2021/06/19 07:51:05;;;;;;;6.53;3.80;;;;;;;22.39;77.31;100739.02;127066;1089;104132;-78
2021/06/19 07:53:33;;;;;;;7.27;4.47;;;;;;;22.44;77.50;100727.40;127062;1089;104347;-77
2021/06/19 07:56:00;;;;;;;7.57;3.77;;;;;;;22.50;76.93;100726.46;127055;1089;104318;-78
2021/06/19 07:58:28;;;;;;;7.47;3.87;;;;;;;22.60;77.30;100724.57;126999;1089;104205;-77
2021/06/19 08:00:56;;;;;;;6.03;3.90;;;;;;;22.72;77.16;100732.47;127058;1089;104248;-79
2021/06/19 08:03:24;;;;;;;6.00;3.90;;;;;;;22.86;76.91;100718.95;127052;1089;104176;-79
2021/06/19 08:05:55;;;;;;;6.77;4.10;;;;;;;23.04;77.26;100717.82;126993;1089;104932;-78
2021/06/19 08:08:26;;;;;;;5.07;3.60;;;;;;;23.19;76.60;100718.55;127010;1089;104143;-79
2021/06/19 08:10:56;;;;;;;4.85;3.40;;;;;;;23.30;76.14;100720.20;127056;1089;104308;-79
2021/06/19 08:13:24;;;;;;;5.67;3.47;;;;;;;23.44;76.79;100711.98;127036;1089;104201;-78
2021/06/19 08:15:55;;;;;;;4.33;3.37;;;;;;;23.61;76.89;100717.09;127009;1089;104181;-78
2021/06/19 08:18:24;;;;;;;3.83;3.43;;;;;;;23.71;76.75;100712.47;126980;1089;104188;-79
2021/06/19 08:20:51;;;;;;;9.53;3.43;;;;;;;23.69;75.82;100716.98;127029;1088;104585;-78
2021/06/19 08:23:19;;;;;;;5.37;3.60;;;;;;;23.51;74.65;100708.31;127040;1089;104145;-79
2021/06/19 08:25:48;;;;;;;6.47;3.97;;;;;;;23.49;75.24;100709.23;127034;1089;104161;-78
2021/06/19 08:28:16;;;;;;;7.43;3.87;;;;;;;23.49;75.06;100709.23;127002;1089;104312;-78
2021/06/19 08:30:44;;;;;;;5.93;3.47;;;;;;;23.54;75.50;100712.72;126987;1089;104309;-78
2021/06/19 08:33:12;;;;;;;6.10;4.00;;;;;;;23.62;75.23;100704.58;127036;1089;104581;-79
2021/06/19 08:35:40;;;;;;;6.90;3.70;;;;;;;23.76;75.07;100707.92;126996;1089;104261;-78
2021/06/19 08:38:07;;;;;;;6.63;3.93;;;;;;;23.71;73.16;100709.80;126931;1089;105335;-79
2021/06/19 08:40:38;;;;;;;6.57;3.47;;;;;;;23.65;72.55;100708.12;127017;1089;104220;-78
2021/06/19 08:43:06;;;;;;;7.30;4.07;;;;;;;23.61;73.68;100708.19;126998;1089;104158;-78
2021/06/19 08:45:35;;;;;;;4.63;3.40;;;;;;;23.63;71.46;100709.03;127030;1089;104158;-79
2021/06/19 08:48:04;;;;;;;5.30;3.60;;;;;;;23.58;72.95;100717.14;126976;1089;104308;-77
2021/06/19 08:50:36;;;;;;;5.13;3.80;;;;;;;23.65;72.98;100707.20;127057;1089;104249;-78
2021/06/19 08:53:04;;;;;;;5.33;3.60;;;;;;;23.80;73.52;100706.10;127046;1089;104126;-78
2021/06/19 08:55:32;;;;;;;6.13;3.50;;;;;;;23.95;73.06;100705.89;126995;1088;104242;-79
2021/06/19 08:58:00;;;;;;;4.57;3.50;;;;;;;24.04;72.99;100699.48;126978;1089;104187;-78
2021/06/19 09:00:28;;;;;;;6.37;3.60;;;;;;;24.12;73.22;100712.75;127040;1089;104254;-77
2021/06/19 09:02:56;;;;;;;6.57;3.57;;;;;;;24.03;71.61;100713.81;127085;1089;104153;-79
2021/06/19 09:05:29;;;;;;;6.80;3.80;;;;;;;23.99;72.37;100709.40;127031;1089;104258;-77
2021/06/19 09:07:58;;;;;;;8.40;3.70;;;;;;;23.96;72.62;100714.81;126958;1089;105652;-78
2021/06/19 09:10:35;;;;;;;6.13;3.93;;;;;;;23.99;72.40;100712.95;127040;1089;104187;-78
2021/06/19 09:13:15;;;;;;;9.53;3.83;;;;;;;24.04;72.63;100713.78;127007;1089;104136;-78
2021/06/19 09:15:45;;;;;;;5.60;3.57;;;;;;;24.12;72.27;100710.06;127050;1089;104106;-79
2021/06/19 09:18:17;;;;;;;5.63;3.80;;;;;;;24.11;71.93;100705.64;127014;1089;104678;-79
2021/06/19 09:20:50;;;;;;;7.60;3.93;;;;;;;24.26;72.03;100710.70;126993;1089;104315;-77
2021/06/19 09:23:25;;;;;;;6.60;3.52;;;;;;;24.33;71.98;100709.70;127066;1089;104165;-79
2021/06/19 09:26:07;;;;;;;7.37;3.87;;;;;;;24.44;71.86;100711.31;127023;1089;104149;-77
2021/06/19 09:28:56;;;;;;;9.07;4.13;;;;;;;24.51;71.65;100707.58;127002;1089;104321;-78
2021/06/19 09:31:36;;;;;;;7.70;3.80;;;;;;;24.70;71.74;100695.64;127065;1089;104197;-79
2021/06/19 09:34:06;;;;;;;7.53;4.30;;;;;;;24.90;71.99;100694.33;127003;1089;104210;-77
2021/06/19 09:36:39;;;;;;;7.67;3.57;;;;;;;25.09;71.35;100697.54;127032;1089;104588;-77
2021/06/19 09:39:10;;;;;;;8.10;3.87;;;;;;;25.24;71.00;100694.53;126984;1089;104933;-78
2021/06/19 09:41:40;;;;;;;5.17;3.37;;;;;;;25.20;69.57;100690.12;127025;1089;104143;-78
2021/06/19 09:44:09;;;;;;;5.33;3.50;;;;;;;25.05;69.57;100687.77;127049;1089;104232;-78
2021/06/19 09:46:38;;;;;;;5.15;3.75;;;;;;;24.91;68.77;100685.38;127002;1089;104296;-77
2021/06/19 09:49:17;;;;;;;5.73;3.70;;;;;;;24.92;69.35;100679.98;126991;1089;104188;-78
2021/06/19 09:51:47;;;;;;;6.70;3.77;;;;;;;25.08;69.47;100688.58;127016;1089;104197;-78
2021/06/19 09:54:16;;;;;;;5.83;3.70;;;;;;;25.31;69.79;100689.93;127035;1089;104139;-77
2021/06/19 09:56:47;;;;;;;7.87;3.80;;;;;;;25.42;69.65;100695.94;127036;1089;104269;-79
2021/06/19 09:59:21;;;;;;;5.83;3.30;;;;;;;25.40;68.96;100683.45;126990;1089;104203;-79
2021/06/19 10:01:49;;;;;;;4.80;3.47;;;;;;;25.35;68.92;100683.55;127029;1089;104129;-78
2021/06/19 10:04:20;;;;;;;6.00;3.43;;;;;;;25.32;68.49;100683.62;127024;1089;104183;-79
2021/06/19 10:06:48;;;;;;;6.03;3.60;;;;;;;25.31;68.56;100684.56;127048;1089;104139;-78
2021/06/19 10:09:17;;;;;;;5.57;3.40;;;;;;;25.30;68.90;100688.15;126983;1089;104239;-77
2021/06/19 10:11:49;;;;;;;6.53;3.67;;;;;;;25.32;68.58;100678.25;127002;1089;104318;-79
2021/06/19 10:14:25;;;;;;;7.27;3.20;;;;;;;25.31;68.80;100692.61;127061;1089;104257;-78
2021/06/19 10:16:55;;;;;;;6.53;3.60;;;;;;;25.29;68.32;100683.69;127008;1089;104178;-80
2021/06/19 10:19:25;;;;;;;9.53;3.57;;;;;;;25.28;68.40;100687.28;127030;1089;104254;-78
2021/06/19 10:21:56;;;;;;;4.67;3.77;;;;;;;25.28;67.47;100681.91;126800;1089;104237;-79
2021/06/19 10:24:25;;;;;;;4.67;3.73;;;;;;;25.26;67.67;100679.25;127022;1089;104145;-78
2021/06/19 10:26:55;;;;;;;6.47;3.43;;;;;;;25.33;67.72;100684.52;127031;1089;104583;-78
2021/06/19 10:29:27;;;;;;;6.60;3.70;;;;;;;25.47;67.45;100687.77;127007;1089;104149;-79
2021/06/19 10:31:55;;;;;;;6.70;3.70;;;;;;;25.66;67.64;100677.47;127053;1089;104132;-79
2021/06/19 10:34:26;;;;;;;4.23;3.10;;;;;;;25.83;67.39;100682.44;127044;1089;104261;-78
2021/06/19 10:36:57;;;;;;;5.80;3.43;;;;;;;25.92;66.96;100681.33;127029;1089;104565;-79
2021/06/19 10:39:41;;;;;;;7.00;3.63;;;;;;;25.94;66.43;100679.48;127058;1089;104155;-79
2021/06/19 10:42:25;;;;;;;3.93;3.20;;;;;;;25.70;66.03;100679.17;127077;1090;110419;-79
2021/06/19 10:45:00;;;;;;;7.00;3.97;;;;;;;25.58;65.83;100677.65;127042;1090;104283;-78
2021/06/19 10:47:31;;;;;;;5.33;3.23;;;;;;;25.47;65.40;100671.66;126771;1090;104636;-79
2021/06/19 10:50:01;;;;;;;5.77;3.43;;;;;;;25.53;65.90;100676.02;126739;1093;104212;-78
2021/06/19 10:52:32;;;;;;;7.50;3.50;;;;;;;25.59;66.20;100674.05;126772;1090;104302;-79
2021/06/19 10:55:27;;;;;;;3.83;3.43;;;;;;;25.47;65.76;100667.16;126765;1090;104649;-78
2021/06/19 10:58:00;;;;;;;9.27;3.53;;;;;;;25.32;65.74;100678.25;126804;1093;104152;-79
2021/06/19 11:00:45;;;;;;;4.00;3.60;;;;;;;25.17;66.02;100670.53;126709;1089;104258;-78
2021/06/19 11:03:14;;;;;;;7.40;3.93;;;;;;;25.17;65.89;100662.47;126709;1093;104133;-77
2021/06/19 11:06:02;;;;;;;6.73;4.10;;;;;;;25.24;65.87;100658.71;126821;1089;104248;-78
2021/06/19 11:09:03;;;;;;;7.33;3.77;;;;;;;25.42;65.24;100662.83;126798;1089;104305;-80
2021/06/19 11:11:51;;;;;;;5.47;3.93;;;;;;;25.63;65.38;100664.10;126740;1089;104375;-78
2021/06/19 11:14:44;;;;;;;7.60;3.50;;;;;;;25.69;64.04;100663.95;126744;1089;104149;-79
2021/06/19 11:17:44;;;;;;;10.93;4.00;;;;;;;25.77;64.49;100656.61;126758;1089;104145;-79
2021/06/19 11:20:27;;;;;;;4.00;3.60;;;;;;;25.83;64.07;100653.74;127058;1089;104183;-78
2021/06/19 11:23:10;;;;;;;4.43;3.60;;;;;;;25.85;63.50;100653.70;126973;1089;104569;-78
2021/06/19 11:26:02;;;;;;;4.93;3.73;;;;;;;25.80;64.01;100648.47;127054;1089;104136;-79
2021/06/19 11:28:32;;;;;;;7.33;3.80;;;;;;;25.63;63.51;100639.92;127048;1090;104152;-78
2021/06/19 11:31:23;;;;;;;11.60;4.10;;;;;;;25.53;64.01;100635.72;126966;1089;104130;-77
2021/06/19 11:33:54;;;;;;;7.00;3.80;;;;;;;25.52;63.53;100631.25;127037;1089;105084;-77
2021/06/19 11:36:28;;;;;;;6.37;3.90;;;;;;;25.47;63.66;100624.17;127017;1089;104185;-78
2021/06/19 11:38:57;;;;;;;6.60;4.13;;;;;;;25.42;64.03;100625.22;127050;1089;104139;-79
2021/06/19 11:41:31;;;;;;;6.23;4.27;;;;;;;25.34;64.09;100621.81;127002;1089;104659;-79
2021/06/19 11:43:58;;;;;;;;;;;;;;;25.27;64.08;100626.42;127049;1089;104124;-78
2021/06/19 11:46:27;;;;;;;5.77;3.90;;;;;;;25.09;63.81;100625.05;127039;1089;104550;-77
2021/06/19 11:48:57;;;;;;;6.93;4.37;;;;;;;24.85;64.15;100631.83;127015;1089;104130;-78
2021/06/19 11:51:27;;;;;;;7.90;4.20;;;;;;;24.54;64.74;100624.38;126987;1090;104630;-79
2021/06/19 11:53:56;;;;;;;7.33;4.20;;;;;;;24.15;64.89;100625.14;127050;1089;104203;-77
2021/06/19 11:56:27;;;;;;;6.10;4.27;;;;;;;23.92;64.84;100633.59;127014;1089;104158;-77
2021/06/19 11:58:59;;;;;;;8.47;4.10;;;;;;;23.79;65.51;100632.86;127027;1089;104200;-78
2021/06/19 12:01:32;;;;;;;6.23;3.73;;;;;;;23.57;65.37;100632.33;127029;1089;104138;-78
2021/06/19 12:04:04;;;;;;;7.00;4.10;;;;;;;23.44;65.42;100630.77;127051;1089;104318;-77
2021/06/19 12:06:35;;;;;;;5.87;4.00;;;;;;;23.35;65.40;100623.75;127015;1089;104135;-77
2021/06/19 12:09:04;;;;;;;7.87;4.10;;;;;;;23.37;65.76;100626.41;127022;1089;104136;-78
2021/06/19 12:11:34;;;;;;;5.57;4.13;;;;;;;23.45;65.86;100627.16;127052;1089;104191;-77
2021/06/19 12:14:21;;;;;;;8.47;4.13;;;;;;;23.47;65.78;100620.02;126972;1089;109922;-78
2021/06/19 12:16:52;;;;;;;9.50;4.03;;;;;;;23.53;66.03;100624.37;127055;1090;104391;-78
2021/06/19 12:19:25;;;;;;;7.60;4.53;;;;;;;23.55;66.05;100620.77;127059;1089;104149;-78
2021/06/19 12:21:59;;;;;;;6.97;4.50;;;;;;;23.54;66.00;100621.66;126992;1089;104126;-77
2021/06/19 12:24:31;;;;;;;9.37;5.43;;;;;;;23.57;66.59;100612.71;127037;1089;104254;-77
2021/06/19 12:27:10;;;;;;;10.07;5.37;;;;;;;23.63;66.49;100613.48;127023;1089;104274;-78
2021/06/19 12:29:44;;;;;;;10.30;5.50;;;;;;;23.71;66.64;100609.80;127069;1089;104252;-79
2021/06/19 12:32:27;;;;;;;9.53;5.17;;;;;;;23.78;66.57;100604.31;127007;1089;104177;-76
2021/06/19 12:34:59;;;;;;;8.40;4.97;;;;;;;23.82;66.81;100606.02;127009;1089;108167;-78
2021/06/19 12:37:30;;;;;;;8.53;5.13;;;;;;;23.81;66.91;100608.72;126814;1089;104156;-78
2021/06/19 12:40:00;;;;;;;9.47;5.37;;;;;;;23.76;67.39;100602.56;127019;1089;104286;-78
2021/06/19 12:42:45;;;;;;;9.00;5.17;;;;;;;23.68;67.18;100595.56;127074;1089;104138;-77
2021/06/19 12:45:16;;;;;;;6.80;5.40;;;;;;;23.59;67.59;100587.68;126959;1089;119136;-77
2021/06/19 12:47:46;;;;;;;9.27;5.53;;;;;;;23.53;67.45;100593.14;127018;1089;104193;-76
2021/06/19 12:50:17;;;;;;;8.93;5.00;;;;;;;23.48;67.63;100586.95;127045;1089;104152;-78
2021/06/19 12:53:03;;;;;;;9.60;5.07;;;;;;;23.42;67.60;100589.72;127042;1089;104254;-77
2021/06/19 12:55:34;;;;;;;10.50;5.80;;;;;;;23.39;67.84;100581.73;126996;1089;104174;-77
2021/06/19 12:58:05;;;;;;;10.80;5.90;;;;;;;23.43;68.13;100594.18;127021;1089;104143;-78
2021/06/19 13:00:38;;;;;;;11.57;6.00;;;;;;;23.49;68.10;100591.41;127008;1089;104312;-78
2021/06/19 13:03:07;;;;;;;10.30;5.97;;;;;;;23.51;68.18;100593.16;127046;1089;104620;-78
2021/06/19 13:05:48;;;;;;;11.30;6.30;;;;;;;23.50;68.63;100602.09;126977;1089;104185;-78
2021/06/19 13:08:18;;;;;;;10.70;6.03;;;;;;;23.48;68.59;100605.70;127023;1089;104238;-77
2021/06/19 13:10:47;;;;;;;8.53;5.93;;;;;;;23.41;68.55;100602.23;127027;1089;104318;-78
2021/06/19 13:13:15;;;;;;;9.83;6.20;;;;;;;23.35;68.85;100612.17;126993;1089;104210;-78
2021/06/19 13:15:58;;;;;;;13.20;5.90;;;;;;;23.23;68.78;100616.77;126983;1089;104130;-78
2021/06/19 13:18:27;;;;;;;12.47;7.13;;;;;;;23.14;68.86;100611.59;127035;1090;104135;-78
2021/06/19 13:21:02;;;;;;;10.70;6.43;;;;;;;23.10;69.32;100616.08;127058;1089;104129;-78
2021/06/19 13:23:34;;;;;;;10.70;6.10;;;;;;;22.97;69.17;100614.46;127034;1090;104136;-78
2021/06/19 13:26:05;;;;;;;9.50;5.73;;;;;;;22.80;69.55;100623.58;126926;1089;104158;-78
2021/06/19 13:28:41;;;;;;;11.47;6.47;;;;;;;22.65;69.94;100620.22;127019;1090;104136;-79
2021/06/19 13:31:11;;;;;;;13.13;7.30;;;;;;;22.47;69.78;100623.98;127015;1089;105073;-80
2021/06/19 13:33:44;;;;;;;13.87;7.53;;;;;;;22.37;69.97;100617.87;127025;1089;104158;-79
2021/06/19 13:36:21;;;;;;;16.25;7.40;;;;;;;22.29;69.99;100617.04;127018;1089;104149;-79
2021/06/19 13:38:52;;;;;;;13.27;7.20;;;;;;;22.23;70.36;100605.48;126991;1088;104136;-79
2021/06/19 13:41:26;;;;;;;12.73;7.40;;;;;;;22.20;70.31;100597.50;127009;1089;104218;-80
2021/06/19 13:43:54;;;;;;;10.17;6.43;;;;;;;22.12;70.94;100585.14;126805;1090;104143;-79
2021/06/19 13:46:22;;;;;;;10.93;6.90;;;;;;;22.03;70.48;100575.42;126742;1092;104309;-80
2021/06/19 13:48:50;;;;;;;12.47;6.83;;;;;;;21.98;71.09;100583.48;126757;1093;104246;-80
2021/06/19 13:51:18;;;;;;;13.57;6.73;;;;;;;21.90;71.13;100578.22;126740;1092;104286;-79
2021/06/19 13:53:48;;;;;;;12.23;7.20;;;;;;;21.89;71.64;100587.16;126773;1089;104139;-81
2021/06/19 13:56:18;;;;;;;13.27;7.90;;;;;;;21.85;71.64;100590.74;126730;1093;104230;-80
2021/06/19 13:58:47;;;;;;;12.20;7.35;;;;;;;21.78;71.83;100591.69;126803;1089;104139;-81
2021/06/19 14:01:16;;;;;;;12.67;7.70;;;;;;;21.71;71.91;100585.52;126759;1093;104206;-79
2021/06/19 14:03:46;;;;;;;13.47;7.63;;;;;;;21.64;71.75;100582.92;126739;1089;104180;-80
2021/06/19 14:06:15;;;;;;;13.73;8.10;;;;;;;21.59;72.50;100576.74;126734;1093;104136;-80
2021/06/19 14:08:45;;;;;;;13.00;7.43;;;;;;;21.49;72.11;100576.81;126775;1089;104257;-80
2021/06/19 14:11:15;;;;;;;12.75;7.10;;;;;;;21.41;72.55;100572.39;126815;1093;104386;-78
2021/06/19 14:13:44;;;;;;;11.03;6.90;;;;;;;21.31;72.61;100561.78;126736;1089;104328;-79
2021/06/19 14:16:13;;;;;;;13.23;7.53;;;;;;;21.28;73.52;100569.81;126743;1089;104162;-79
2021/06/19 14:18:42;;;;;;;13.97;8.40;;;;;;;21.27;73.40;100572.49;127044;1089;104133;-81
2021/06/19 14:21:15;;;;;;;15.68;8.50;;;;;;;21.24;73.28;100578.75;127018;1089;104155;-78
2021/06/19 14:23:44;;;;;;;15.40;9.30;;;;;;;21.22;73.87;100579.66;127046;1089;104181;-80
2021/06/19 14:26:16;;;;;;;13.83;8.30;;;;;;;21.19;74.59;100577.88;127036;1088;104687;-80
2021/06/19 14:28:44;;;;;;;15.17;8.33;;;;;;;21.13;74.06;100577.92;127022;1089;105062;-79
2021/06/19 14:31:14;;;;;;;13.13;8.07;;;;;;;21.05;74.41;100575.33;127025;1089;104133;-79
2021/06/19 14:33:42;;;;;;;15.20;8.13;;;;;;;20.95;74.31;100562.94;127048;1089;104134;-79
2021/06/19 14:36:12;;;;;;;17.30;8.67;;;;;;;20.83;74.39;100550.55;126969;1089;104206;-79
2021/06/19 14:38:41;;;;;;;13.70;8.00;;;;;;;20.75;74.32;100550.58;127014;1089;104178;-79
2021/06/19 14:41:10;;;;;;;11.63;7.40;;;;;;;20.69;74.54;100547.07;126989;1089;104137;-79
2021/06/19 14:43:39;;;;;;;12.87;7.93;;;;;;;20.67;74.89;100541.75;127026;1089;104181;-78
2021/06/19 14:46:08;;;;;;;13.70;7.53;;;;;;;20.70;75.16;100538.19;126999;1089;104155;-80
2021/06/19 14:48:37;;;;;;;13.67;8.07;;;;;;;20.79;75.07;100533.69;127044;1089;104139;-79
2021/06/19 14:51:07;;;;;;;15.13;7.70;;;;;;;20.92;75.43;100531.82;127052;1089;104197;-80
2021/06/19 14:53:36;;;;;;;16.00;8.57;;;;;;;21.07;74.58;100529.97;127015;1088;104219;-79
2021/06/19 14:56:05;;;;;;;14.67;8.47;;;;;;;21.22;74.67;100536.95;126993;1089;104178;-79
2021/06/19 14:58:33;;;;;;;13.03;6.67;;;;;;;21.35;75.02;100530.64;127023;1089;104181;-79
2021/06/19 15:01:03;;;;;;;11.47;6.37;;;;;;;21.49;75.26;100523.42;127049;1089;104264;-80
2021/06/19 15:03:32;;;;;;;9.30;5.63;;;;;;;21.67;75.37;100524.15;127038;1089;104194;-79
2021/06/19 15:06:01;;;;;;;10.23;6.07;;;;;;;21.79;74.79;100520.48;126972;1089;105702;-78
2021/06/19 15:08:31;;;;;;;10.27;5.63;;;;;;;21.95;75.29;100532.76;127000;1089;104184;-80
2021/06/19 15:10:59;;;;;;;7.83;5.50;;;;;;;22.07;74.75;100532.63;127058;1089;104210;-78
2021/06/19 15:13:28;;;;;;;10.30;6.20;;;;;;;22.16;75.30;100531.66;127033;1089;104149;-80
2021/06/19 15:15:58;;;;;;;9.57;5.93;;;;;;;22.17;74.59;100533.40;127042;1089;104278;-79
2021/06/19 15:18:34;;;;;;;9.85;5.72;;;;;;;22.11;75.13;100529.92;126979;1089;104175;-78
2021/06/19 15:21:01;;;;;;;8.17;5.10;;;;;;;22.06;75.13;100529.97;127040;1089;104146;-78
2021/06/19 15:23:34;;;;;;;8.67;4.90;;;;;;;21.95;74.94;100534.56;127064;1089;104130;-78
2021/06/19 15:26:02;;;;;;;9.33;5.00;;;;;;;21.84;74.79;100530.20;127056;1089;104142;-79
2021/06/19 15:28:29;;;;;;;7.93;4.50;;;;;;;21.73;74.87;100534.77;126974;1089;105311;-78
2021/06/19 15:30:58;;;;;;;6.57;4.20;;;;;;;21.62;75.04;100536.67;127014;1089;104133;-78
2021/06/19 15:33:26;;;;;;;6.73;4.57;;;;;;;21.49;74.93;100533.23;127036;1089;104130;-80
2021/06/19 15:35:53;;;;;;;6.43;4.50;;;;;;;21.37;74.73;100524.38;127008;1089;104127;-78
2021/06/19 15:38:21;;;;;;;6.57;5.00;;;;;;;21.30;75.35;100527.09;127031;1089;104165;-78
2021/06/19 15:40:49;;;;;;;6.63;4.67;;;;;;;21.24;75.79;100527.15;127043;1089;104133;-78
2021/06/19 15:43:17;;;;;;;7.03;5.00;;;;;;;21.22;75.65;100528.95;127007;1089;104329;-78
2021/06/19 15:45:45;;;;;;;7.57;4.70;;;;;;;21.23;75.73;100530.73;127028;1089;104130;-78
2021/06/19 15:48:13;;;;;;;7.03;5.10;;;;;;;21.23;75.48;100526.27;126966;1089;104139;-78
2021/06/19 15:50:41;;;;;;;8.40;5.10;;;;;;;21.19;75.65;100525.42;127028;1089;104139;-78
2021/06/19 15:53:09;;;;;;;7.93;4.77;;;;;;;21.19;76.08;100520.09;127078;1089;104132;-77
2021/06/19 15:55:37;;;;;;;9.40;4.70;;;;;;;21.24;75.70;100519.14;127009;1089;104236;-78
2021/06/19 15:58:04;;;;;;;8.55;5.35;;;;;;;21.30;76.15;100516.42;127006;1089;104611;-78
2021/06/19 16:00:32;;;;;;;6.13;4.70;;;;;;;21.43;75.77;100518.11;127042;1089;104222;-77
2021/06/19 16:03:00;;;;;;;11.87;5.03;;;;;;;21.60;76.22;100512.65;127034;1089;104136;-77
2021/06/19 16:05:28;;;;;;;7.10;4.80;;;;;;;21.76;75.93;100525.86;127038;1089;104229;-77
2021/06/19 16:07:56;;;;;;;8.27;4.80;;;;;;;21.88;76.46;100520.39;126973;1089;104385;-77
2021/06/19 16:10:25;;;;;;;6.97;4.60;;;;;;;21.87;76.08;100524.83;127037;1089;104298;-79
2021/06/19 16:12:53;;;;;;;9.23;4.57;;;;;;;21.78;75.59;100524.92;127041;1089;104133;-78
2021/06/19 16:15:20;;;;;;;8.93;4.30;;;;;;;21.69;75.95;100525.01;127057;1089;104133;-78
2021/06/19 16:17:48;;;;;;;4.93;3.77;;;;;;;21.62;76.02;100512.63;127014;1089;104238;-78
2021/06/19 16:20:17;;;;;;;6.40;4.10;;;;;;;21.59;76.38;100515.34;127004;1090;104165;-77
2021/06/19 16:22:45;;;;;;;6.20;4.20;;;;;;;21.54;76.25;100518.05;127036;1089;104133;-78
2021/06/19 16:25:15;;;;;;;6.07;4.10;;;;;;;21.46;76.00;100512.74;127024;1089;104140;-77